Time,TemperatureF,DewpointF,PressureIn,WindDirection,WindDirectionDegrees,WindSpeedMPH,WindSpeedGustMPH,Humidity,HourlyPrecipIn,Conditions,Clouds,dailyrainin,SolarRadiationWatts/m^2,SoftwareType,DateUTC
2013-01-12 00:11:00,9.0,4.0,-100.00,NNW,340,4.0,7.0,79,0.00,,,0.00,0.000000,,2013-01-12 08:11:00,
2013-01-12 00:22:00,9.0,4.0,-100.00,NNW,340,4.0,7.0,79,0.00,,,0.00,0.000000,,2013-01-12 08:22:00,
2013-01-12 00:32:00,9.0,4.0,-100.00,NNW,340,4.0,7.0,79,0.00,,,0.00,0.000000,,2013-01-12 08:32:00,
2013-01-12 00:42:00,9.0,4.0,-100.00,NNW,340,4.0,7.0,79,0.00,,,0.00,0.000000,,2013-01-12 08:42:00,
2013-01-12 01:12:00,7.0,3.0,-100.00,NNE,13,3.0,7.0,84,0.00,,,0.00,0.000000,,2013-01-12 09:12:00,
2013-01-12 01:22:00,7.0,3.0,-100.00,NNE,13,3.0,7.0,84,0.00,,,0.00,0.000000,,2013-01-12 09:22:00,
2013-01-12 01:32:00,7.0,3.0,-100.00,NNE,13,3.0,7.0,84,0.00,,,0.00,0.000000,,2013-01-12 09:32:00,
2013-01-12 01:42:00,7.0,3.0,-100.00,NNE,13,3.0,7.0,84,0.00,,,0.00,0.000000,,2013-01-12 09:42:00,
2013-01-12 02:11:00,11.0,6.0,-100.00,North,7,4.0,6.0,80,0.00,,,0.00,0.000000,,2013-01-12 10:11:00,
2013-01-12 02:22:00,11.0,6.0,-100.00,North,7,4.0,6.0,80,0.00,,,0.00,0.000000,,2013-01-12 10:22:00,
2013-01-12 02:32:00,11.0,6.0,-100.00,North,7,4.0,6.0,80,0.00,,,0.00,0.000000,,2013-01-12 10:32:00,
2013-01-12 02:42:00,11.0,6.0,-100.00,North,7,4.0,6.0,80,0.00,,,0.00,0.000000,,2013-01-12 10:42:00,
2013-01-12 03:12:00,6.0,2.0,-100.00,NNW,346,1.0,5.0,84,0.00,,,0.00,0.000000,,2013-01-12 11:12:00,
2013-01-12 03:22:00,6.0,2.0,-100.00,NNW,346,1.0,5.0,84,0.00,,,0.00,0.000000,,2013-01-12 11:22:00,
2013-01-12 03:32:00,6.0,2.0,-100.00,NNW,346,1.0,5.0,84,0.00,,,0.00,0.000000,,2013-01-12 11:32:00,
2013-01-12 03:42:00,6.0,2.0,-100.00,NNW,346,1.0,5.0,84,0.00,,,0.00,0.000000,,2013-01-12 11:42:00,
2013-01-12 04:12:00,7.0,4.0,-100.00,NNW,344,5.0,7.0,89,0.00,,,0.00,0.000000,,2013-01-12 12:12:00,
2013-01-12 04:22:00,7.0,4.0,-100.00,NNW,344,5.0,7.0,89,0.00,,,0.00,0.000000,,2013-01-12 12:22:00,
2013-01-12 04:32:00,7.0,4.0,-100.00,NNW,344,5.0,7.0,89,0.00,,,0.00,0.000000,,2013-01-12 12:32:00,
2013-01-12 04:42:00,7.0,4.0,-100.00,NNW,344,5.0,7.0,89,0.00,,,0.00,0.000000,,2013-01-12 12:42:00,
2013-01-12 05:12:00,8.0,5.0,-100.00,North,2,5.0,7.0,87,0.00,,,0.00,0.000000,,2013-01-12 13:12:00,
2013-01-12 05:22:00,8.0,5.0,-100.00,North,2,5.0,7.0,87,0.00,,,0.00,0.000000,,2013-01-12 13:22:00,
2013-01-12 05:32:00,8.0,5.0,-100.00,North,2,5.0,7.0,87,0.00,,,0.00,0.000000,,2013-01-12 13:32:00,
2013-01-12 05:42:00,8.0,5.0,-100.00,North,2,5.0,7.0,87,0.00,,,0.00,0.000000,,2013-01-12 13:42:00,
2013-01-12 06:12:00,7.0,3.0,-100.00,NNW,348,4.0,7.0,85,0.00,,,0.00,0.000000,,2013-01-12 14:12:00,
2013-01-12 06:22:00,7.0,3.0,-100.00,NNW,348,4.0,7.0,85,0.00,,,0.00,0.000000,,2013-01-12 14:22:00,
2013-01-12 06:32:00,7.0,3.0,-100.00,NNW,348,4.0,7.0,85,0.00,,,0.00,0.000000,,2013-01-12 14:32:00,
2013-01-12 06:43:00,7.0,3.0,-100.00,NNW,348,4.0,7.0,85,0.00,,,0.00,0.000000,,2013-01-12 14:43:00,
2013-01-12 07:12:00,7.0,3.0,-100.00,North,350,6.0,8.0,84,0.00,,,0.00,0.000000,,2013-01-12 15:12:00,
2013-01-12 07:22:00,7.0,3.0,-100.00,North,350,6.0,8.0,84,0.00,,,0.00,0.000000,,2013-01-12 15:22:00,
2013-01-12 07:33:00,7.0,3.0,-100.00,North,350,6.0,8.0,84,0.00,,,0.00,0.000000,,2013-01-12 15:33:00,
2013-01-12 07:42:00,7.0,3.0,-100.00,North,350,6.0,8.0,84,0.00,,,0.00,0.000000,,2013-01-12 15:42:00,
2013-01-12 08:12:00,7.0,3.0,-100.00,NNW,327,5.0,8.0,82,0.00,,,0.00,0.000000,,2013-01-12 16:12:00,
2013-01-12 08:22:00,7.0,3.0,-100.00,NNW,327,5.0,8.0,82,0.00,,,0.00,0.000000,,2013-01-12 16:22:00,
2013-01-12 08:32:00,7.0,3.0,-100.00,NNW,327,5.0,8.0,82,0.00,,,0.00,0.000000,,2013-01-12 16:32:00,
2013-01-12 08:42:00,7.0,3.0,-100.00,NNW,327,5.0,8.0,82,0.00,,,0.00,0.000000,,2013-01-12 16:42:00,
2013-01-12 09:12:00,10.0,5.0,-100.00,NNW,347,3.0,9.0,79,0.00,,,-99.99,27.000000,,2013-01-12 17:12:00,
2013-01-12 09:22:00,10.0,5.0,-100.00,NNW,347,3.0,9.0,79,0.00,,,-99.99,27.000000,,2013-01-12 17:22:00,
2013-01-12 09:32:00,10.0,5.0,-100.00,NNW,347,3.0,9.0,79,0.00,,,-99.99,27.000000,,2013-01-12 17:32:00,
2013-01-12 09:42:00,10.0,5.0,-100.00,NNW,347,3.0,9.0,79,0.00,,,-99.99,27.000000,,2013-01-12 17:42:00,
2013-01-12 10:12:00,9.0,3.0,-100.00,NNW,329,7.0,10.0,76,0.00,,,0.00,172.000000,,2013-01-12 18:12:00,
2013-01-12 10:22:00,9.0,3.0,-100.00,NNW,329,7.0,10.0,76,0.00,,,0.00,172.000000,,2013-01-12 18:22:00,
2013-01-12 10:33:00,9.0,3.0,-100.00,NNW,329,7.0,10.0,76,0.00,,,0.00,172.000000,,2013-01-12 18:33:00,
2013-01-12 10:42:00,9.0,3.0,-100.00,NNW,329,7.0,10.0,76,0.00,,,0.00,172.000000,,2013-01-12 18:42:00,
2013-01-12 11:12:00,14.0,8.0,-100.00,NW,326,9.0,11.0,76,0.00,,,0.00,286.000000,,2013-01-12 19:12:00,
2013-01-12 11:22:00,14.0,8.0,-100.00,NW,326,9.0,11.0,76,0.00,,,0.00,286.000000,,2013-01-12 19:22:00,
2013-01-12 11:32:00,14.0,8.0,-100.00,NW,326,9.0,11.0,76,0.00,,,0.00,286.000000,,2013-01-12 19:32:00,
2013-01-12 11:42:00,14.0,8.0,-100.00,NW,326,9.0,11.0,76,0.00,,,0.00,286.000000,,2013-01-12 19:42:00,
2013-01-12 12:12:00,18.0,12.0,-100.00,NNW,340,8.0,9.0,76,0.00,,,-99.99,359.000000,,2013-01-12 20:12:00,
2013-01-12 12:22:00,18.0,12.0,-100.00,NNW,340,8.0,9.0,76,0.00,,,-99.99,359.000000,,2013-01-12 20:22:00,
2013-01-12 12:32:00,18.0,12.0,-100.00,NNW,340,8.0,9.0,76,0.00,,,-99.99,359.000000,,2013-01-12 20:32:00,
2013-01-12 12:42:00,18.0,12.0,-100.00,NNW,340,8.0,9.0,76,0.00,,,-99.99,359.000000,,2013-01-12 20:42:00,
2013-01-12 13:12:00,23.0,12.0,-100.00,North,3,5.0,9.0,62,0.00,,,0.00,376.000000,,2013-01-12 21:12:00,
2013-01-12 13:22:00,23.0,12.0,-100.00,North,3,5.0,9.0,62,0.00,,,0.00,376.000000,,2013-01-12 21:22:00,
2013-01-12 13:32:00,23.0,12.0,-100.00,North,3,5.0,9.0,62,0.00,,,0.00,376.000000,,2013-01-12 21:32:00,
2013-01-12 13:42:00,23.0,12.0,-100.00,North,3,5.0,9.0,62,0.00,,,0.00,376.000000,,2013-01-12 21:42:00,
2013-01-12 14:12:00,19.0,10.0,-100.00,NNW,345,6.0,9.0,68,0.00,,,0.00,337.000000,,2013-01-12 22:12:00,
2013-01-12 14:22:00,19.0,10.0,-100.00,NNW,345,6.0,9.0,68,0.00,,,0.00,337.000000,,2013-01-12 22:22:00,
2013-01-12 14:32:00,19.0,10.0,-100.00,NNW,345,6.0,9.0,68,0.00,,,0.00,337.000000,,2013-01-12 22:32:00,
2013-01-12 14:42:00,19.0,10.0,-100.00,NNW,345,6.0,9.0,68,0.00,,,0.00,337.000000,,2013-01-12 22:42:00,
2013-01-12 15:12:00,20.0,10.0,-100.00,North,352,11.0,16.0,64,0.00,,,0.00,252.000000,,2013-01-12 23:12:00,
2013-01-12 15:22:00,20.0,10.0,-100.00,North,352,11.0,16.0,64,0.00,,,0.00,252.000000,,2013-01-12 23:22:00,
2013-01-12 15:32:00,20.0,10.0,-100.00,North,352,11.0,16.0,64,0.00,,,0.00,252.000000,,2013-01-12 23:32:00,
2013-01-12 15:42:00,20.0,10.0,-100.00,North,352,11.0,16.0,64,0.00,,,0.00,252.000000,,2013-01-12 23:42:00,
2013-01-12 16:12:00,19.0,8.0,-100.00,North,6,13.0,17.0,62,0.00,,,0.00,129.000000,,2013-01-13 00:12:00,
2013-01-12 16:22:00,19.0,8.0,-100.00,North,6,13.0,17.0,62,0.00,,,0.00,129.000000,,2013-01-13 00:22:00,
2013-01-12 16:32:00,19.0,8.0,-100.00,North,6,13.0,17.0,62,0.00,,,0.00,129.000000,,2013-01-13 00:32:00,
2013-01-12 16:42:00,19.0,8.0,-100.00,North,6,13.0,17.0,62,0.00,,,0.00,129.000000,,2013-01-13 00:42:00,
2013-01-12 17:12:00,14.0,4.0,-100.00,NNW,329,7.0,19.0,65,0.00,,,0.00,7.000000,,2013-01-13 01:12:00,
2013-01-12 17:22:00,14.0,4.0,-100.00,NNW,329,7.0,19.0,65,0.00,,,0.00,7.000000,,2013-01-13 01:22:00,
2013-01-12 17:32:00,14.0,4.0,-100.00,NNW,329,7.0,19.0,65,0.00,,,0.00,7.000000,,2013-01-13 01:32:00,
2013-01-12 17:42:00,14.0,4.0,-100.00,NNW,329,7.0,19.0,65,0.00,,,0.00,7.000000,,2013-01-13 01:42:00,
2013-01-12 18:12:00,12.0,3.0,-100.00,NW,305,7.0,8.0,67,0.00,,,0.00,0.000000,,2013-01-13 02:12:00,
2013-01-12 18:22:00,12.0,3.0,-100.00,NW,305,7.0,8.0,67,0.00,,,0.00,0.000000,,2013-01-13 02:22:00,
2013-01-12 18:32:00,12.0,3.0,-100.00,NW,305,7.0,8.0,67,0.00,,,0.00,0.000000,,2013-01-13 02:32:00,
2013-01-12 18:42:00,12.0,3.0,-100.00,NW,305,7.0,8.0,67,0.00,,,0.00,0.000000,,2013-01-13 02:42:00,
2013-01-12 19:12:00,9.0,1.0,-100.00,SW,228,0.0,10.0,70,0.00,,,0.00,0.000000,,2013-01-13 03:12:00,
2013-01-12 19:22:00,9.0,1.0,-100.00,SW,228,0.0,10.0,70,0.00,,,0.00,0.000000,,2013-01-13 03:22:00,
2013-01-12 19:32:00,9.0,1.0,-100.00,SW,228,0.0,10.0,70,0.00,,,0.00,0.000000,,2013-01-13 03:32:00,
2013-01-12 19:42:00,9.0,1.0,-100.00,SW,228,0.0,10.0,70,0.00,,,0.00,0.000000,,2013-01-13 03:42:00,
2013-01-12 20:12:00,12.0,3.0,-100.00,NW,323,5.0,8.0,67,0.00,,,0.00,0.000000,,2013-01-13 04:12:00,
2013-01-12 20:22:00,12.0,3.0,-100.00,NW,323,5.0,8.0,67,0.00,,,0.00,0.000000,,2013-01-13 04:22:00,
2013-01-12 20:32:00,12.0,3.0,-100.00,NW,323,5.0,8.0,67,0.00,,,0.00,0.000000,,2013-01-13 04:32:00,
2013-01-12 20:42:00,12.0,3.0,-100.00,NW,323,5.0,8.0,67,0.00,,,0.00,0.000000,,2013-01-13 04:42:00,
2013-01-12 21:12:00,11.0,3.0,-100.00,NW,324,3.0,8.0,70,0.00,,,0.00,0.000000,,2013-01-13 05:12:00,
2013-01-12 21:22:00,11.0,3.0,-100.00,NW,324,3.0,8.0,70,0.00,,,0.00,0.000000,,2013-01-13 05:22:00,
2013-01-12 21:32:00,11.0,3.0,-100.00,NW,324,3.0,8.0,70,0.00,,,0.00,0.000000,,2013-01-13 05:32:00,
2013-01-12 21:42:00,11.0,3.0,-100.00,NW,324,3.0,8.0,70,0.00,,,0.00,0.000000,,2013-01-13 05:42:00,
2013-01-12 22:12:00,8.0,1.0,-100.00,NW,324,7.0,10.0,73,0.00,,,0.00,0.000000,,2013-01-13 06:12:00,
2013-01-12 22:22:00,8.0,1.0,-100.00,NW,324,7.0,10.0,73,0.00,,,0.00,0.000000,,2013-01-13 06:22:00,
2013-01-12 22:32:00,8.0,1.0,-100.00,NW,324,7.0,10.0,73,0.00,,,0.00,0.000000,,2013-01-13 06:32:00,
2013-01-12 22:42:00,8.0,1.0,-100.00,NW,324,7.0,10.0,73,0.00,,,0.00,0.000000,,2013-01-13 06:42:00,
2013-01-12 23:12:00,7.0,0.0,-100.00,NW,319,7.0,8.0,73,0.00,,,0.00,0.000000,,2013-01-13 07:12:00,
2013-01-12 23:22:00,7.0,0.0,-100.00,NW,319,7.0,8.0,73,0.00,,,0.00,0.000000,,2013-01-13 07:22:00,
2013-01-12 23:32:00,7.0,0.0,-100.00,NW,319,7.0,8.0,73,0.00,,,0.00,0.000000,,2013-01-13 07:32:00,
2013-01-12 23:42:00,7.0,0.0,-100.00,NW,319,7.0,8.0,73,0.00,,,0.00,0.000000,,2013-01-13 07:42:00,